createdAt,value
2023-04-06T00:01:54.869Z,98943.00
2023-04-06T00:04:22.295Z,98933.34
2023-04-06T00:06:49.790Z,98932.56
2023-04-06T00:09:16.849Z,98933.34
2023-04-06T00:11:44.072Z,98914.03
2023-04-06T00:14:11.345Z,98913.69
2023-04-06T00:16:38.672Z,98923.72
2023-04-06T00:19:05.846Z,98922.50
2023-04-06T00:21:33.460Z,98919.81
2023-04-06T00:24:00.744Z,98907.66
2023-04-06T00:26:28.193Z,98913.94
2023-04-06T00:28:58.779Z,98912.03
2023-04-06T00:31:26.586Z,98908.00
2023-04-06T00:33:53.969Z,98903.38
2023-04-06T00:36:21.431Z,98891.53
2023-04-06T00:38:48.889Z,98896.59
2023-04-06T00:41:16.346Z,98892.94
2023-04-06T00:43:46.291Z,98899.75
2023-04-06T00:46:13.673Z,98892.88
2023-04-06T00:48:41.982Z,98885.56
2023-04-06T00:51:09.098Z,98886.88
2023-04-06T00:53:36.656Z,98886.81
2023-04-06T00:56:05.173Z,98876.88
2023-04-06T00:58:42.157Z,98886.53
2023-04-06T01:01:10.308Z,98886.22
2023-04-06T01:03:37.891Z,98889.50
2023-04-06T01:06:05.963Z,98881.19
2023-04-06T01:08:38.262Z,98872.72
2023-04-06T01:11:19.444Z,98878.44
2023-04-06T01:13:48.240Z,98886.66
2023-04-06T01:16:24.509Z,98874.94
2023-04-06T01:19:16.276Z,98877.00
2023-04-06T01:21:47.454Z,98881.53
2023-04-06T01:24:32.877Z,98870.22
2023-04-06T01:27:07.066Z,98856.94
2023-04-06T01:29:53.241Z,98861.41
2023-04-06T01:32:38.595Z,98861.84
2023-04-06T01:35:07.039Z,98865.34
2023-04-06T01:37:38.118Z,98858.72
2023-04-06T01:40:09.345Z,98859.28
2023-04-06T01:42:45.263Z,98868.94
2023-04-06T01:45:17.254Z,98863.78
2023-04-06T01:47:45.941Z,98858.41
2023-04-06T01:50:13.792Z,98858.28
2023-04-06T01:52:45.846Z,98860.06
2023-04-06T01:55:13.413Z,98855.72
2023-04-06T01:58:00.717Z,98857.69
2023-04-06T02:00:35.074Z,98848.91
2023-04-06T02:03:03.030Z,98854.03
2023-04-06T02:05:35.099Z,98853.81
2023-04-06T02:08:02.705Z,98850.25
2023-04-06T02:10:36.352Z,98856.25
2023-04-06T02:13:12.254Z,98846.91
2023-04-06T02:15:44.587Z,98847.69
2023-04-06T02:18:12.243Z,98848.50
2023-04-06T02:20:39.536Z,98846.97
2023-04-06T02:23:06.791Z,98832.19
2023-04-06T02:25:34.641Z,98838.94
2023-04-06T02:28:02.002Z,98836.59
2023-04-06T02:30:30.686Z,98848.56
2023-04-06T02:32:59.200Z,98837.81
2023-04-06T02:35:26.945Z,98829.19
2023-04-06T02:37:55.944Z,98837.09
2023-04-06T02:40:23.667Z,98837.75
2023-04-06T02:42:50.980Z,98839.38
2023-04-06T02:45:24.575Z,98835.06
2023-04-06T02:47:51.617Z,98843.09
2023-04-06T02:50:18.812Z,98844.78
2023-04-06T02:52:55.015Z,98852.28
2023-04-06T02:55:24.851Z,98848.13
2023-04-06T02:57:52.505Z,98846.22
2023-04-06T03:00:23.750Z,98840.09
2023-04-06T03:02:51.376Z,98846.22
2023-04-06T03:05:19.983Z,98832.44
2023-04-06T03:07:48.498Z,98828.84
2023-04-06T03:10:24.326Z,98824.59
2023-04-06T03:12:51.424Z,98847.28
2023-04-06T03:15:24.641Z,98852.19
2023-04-06T03:18:00.125Z,98832.56
2023-04-06T03:20:41.325Z,98829.84
2023-04-06T03:23:11.508Z,98827.06
2023-04-06T03:25:47.466Z,98829.56
2023-04-06T03:28:22.670Z,98836.75
2023-04-06T03:30:59.592Z,98839.31
2023-04-06T03:33:45.593Z,98830.72
2023-04-06T03:36:36.011Z,98835.75
2023-04-06T03:39:06.729Z,98828.63
2023-04-06T03:41:40.202Z,98842.94
2023-04-06T03:44:21.942Z,98834.28
2023-04-06T03:46:53.403Z,98842.03
2023-04-06T03:49:22.536Z,98838.34
2023-04-06T03:51:54.262Z,98835.53
2023-04-06T03:54:47.489Z,98835.53
2023-04-06T03:57:14.488Z,98834.75
2023-04-06T03:59:46.689Z,98828.72
2023-04-06T04:02:17.392Z,98830.19
2023-04-06T04:04:45.544Z,98836.13
2023-04-06T04:07:14.599Z,98835.94
2023-04-06T04:09:44.977Z,98835.31
2023-04-06T04:12:12.375Z,98836.63
2023-04-06T04:14:42.317Z,98838.72
2023-04-06T04:17:10.263Z,98840.25
2023-04-06T04:19:38.550Z,98833.59
2023-04-06T04:22:10.412Z,98839.50
2023-04-06T04:24:41.144Z,98843.22
2023-04-06T04:27:10.439Z,98853.31
2023-04-06T04:29:40.690Z,98844.03
2023-04-06T04:32:12.212Z,98851.38
2023-04-06T04:34:42.407Z,98845.97
2023-04-06T04:37:16.736Z,98844.56
2023-04-06T04:39:55.544Z,98843.81
2023-04-06T04:42:23.935Z,98851.13
2023-04-06T04:44:54.501Z,98848.88
2023-04-06T04:47:33.777Z,98843.09
2023-04-06T04:50:01.823Z,98852.25
2023-04-06T04:52:30.207Z,98850.94
2023-04-06T04:55:12.139Z,98843.00
2023-04-06T04:57:39.734Z,98845.88
2023-04-06T05:00:08.392Z,98849.22
2023-04-06T05:02:38.030Z,98843.78
2023-04-06T05:05:19.574Z,98846.06
2023-04-06T05:07:47.160Z,98853.78
2023-04-06T05:10:25.741Z,98840.84
2023-04-06T05:12:57.806Z,98843.94
2023-04-06T05:15:27.138Z,98841.44
2023-04-06T05:17:59.863Z,98843.91
2023-04-06T05:20:32.740Z,98842.41
2023-04-06T05:23:04.000Z,98841.19
2023-04-06T05:25:31.891Z,98843.09
2023-04-06T05:28:06.520Z,98844.44
2023-04-06T05:30:39.471Z,98841.78
2023-04-06T05:33:08.104Z,98849.22
2023-04-06T05:35:53.850Z,98845.56
2023-04-06T05:38:21.669Z,98844.00
2023-04-06T05:40:50.035Z,98845.16
2023-04-06T05:43:23.041Z,98840.53
2023-04-06T05:45:55.134Z,98846.66
2023-04-06T05:48:25.760Z,98844.25
2023-04-06T05:50:53.652Z,98845.44
2023-04-06T05:53:32.613Z,98840.66
2023-04-06T05:56:06.137Z,98844.84
2023-04-06T05:58:34.100Z,98850.38
2023-04-06T06:01:02.798Z,98850.41
2023-04-06T06:03:39.511Z,98844.75
2023-04-06T06:06:08.050Z,98838.72
2023-04-06T06:09:12.226Z,98840.50
2023-04-06T06:11:47.855Z,98847.69
2023-04-06T06:14:18.840Z,98846.00
2023-04-06T06:16:48.043Z,98840.38
2023-04-06T06:19:17.480Z,98848.03
2023-04-06T06:21:50.063Z,98859.31
2023-04-06T06:24:17.749Z,98856.81
2023-04-06T06:26:46.337Z,98858.88
2023-04-06T06:29:16.497Z,98865.09
2023-04-06T06:31:45.593Z,98859.53
2023-04-06T06:34:14.296Z,98864.56
2023-04-06T06:36:46.403Z,98858.59
2023-04-06T06:39:16.938Z,98859.78
2023-04-06T06:41:45.787Z,98862.31
2023-04-06T06:44:14.339Z,98865.41
2023-04-06T06:46:42.177Z,98863.56
2023-04-06T06:49:13.070Z,98863.16
2023-04-06T06:51:41.222Z,98854.50
2023-04-06T06:54:09.762Z,98847.59
2023-04-06T06:56:39.765Z,98864.06
2023-04-06T06:59:08.643Z,98848.63
2023-04-06T07:01:38.467Z,98854.72
2023-04-06T07:04:07.740Z,98865.13
2023-04-06T07:06:40.088Z,98858.06
2023-04-06T07:09:09.696Z,98851.63
2023-04-06T07:11:38.572Z,98853.88
2023-04-06T07:14:09.763Z,98855.97
2023-04-06T07:16:44.191Z,98867.28
2023-04-06T07:19:13.586Z,98848.34
2023-04-06T07:21:43.567Z,98854.59
2023-04-06T07:24:15.920Z,98865.41
2023-04-06T07:26:45.790Z,98872.22
2023-04-06T07:29:14.951Z,98865.31
2023-04-06T07:31:43.358Z,98863.94
2023-04-06T07:34:11.387Z,98861.66
2023-04-06T07:36:41.516Z,98863.91
2023-04-06T07:39:10.217Z,98861.25
2023-04-06T07:41:39.260Z,98864.84
2023-04-06T07:44:08.264Z,98872.13
2023-04-06T07:46:38.350Z,98864.75
2023-04-06T07:49:07.818Z,98867.13
2023-04-06T07:51:41.564Z,98854.44
2023-04-06T07:54:09.527Z,98862.19
2023-04-06T07:56:37.469Z,98844.81
2023-04-06T07:59:06.121Z,98847.94
2023-04-06T08:01:33.468Z,98857.44
2023-04-06T08:04:04.298Z,98856.25
2023-04-06T08:06:33.335Z,98852.47
2023-04-06T08:09:01.793Z,98867.03
2023-04-06T08:11:34.719Z,98870.34
2023-04-06T08:14:03.404Z,98868.78
2023-04-06T08:16:32.240Z,98874.59
2023-04-06T08:19:01.117Z,98864.59
2023-04-06T08:21:30.941Z,98870.81
2023-04-06T08:23:59.658Z,98861.94
2023-04-06T08:26:27.528Z,98864.84
2023-04-06T08:28:55.572Z,98863.13
2023-04-06T08:31:23.038Z,98865.84
2023-04-06T08:33:51.402Z,98862.41
2023-04-06T08:36:24.174Z,98860.56
2023-04-06T08:38:53.046Z,98866.63
2023-04-06T08:41:22.526Z,98862.50
2023-04-06T08:43:57.788Z,98875.53
2023-04-06T08:46:33.606Z,98862.06
2023-04-06T08:49:04.397Z,98864.66
2023-04-06T08:51:35.060Z,98865.09
2023-04-06T08:54:03.821Z,98873.13
2023-04-06T08:56:31.423Z,98870.75
2023-04-06T08:59:01.559Z,98864.16
2023-04-06T09:01:31.153Z,98868.84
2023-04-06T09:04:02.417Z,98870.50
2023-04-06T09:06:33.135Z,98873.00
2023-04-06T09:09:01.811Z,98882.19
2023-04-06T09:11:31.321Z,98866.34
2023-04-06T09:14:02.367Z,98876.53
2023-04-06T09:16:45.146Z,98869.13
2023-04-06T09:19:14.264Z,98879.50
2023-04-06T09:21:43.952Z,98880.34
2023-04-06T09:24:12.680Z,98887.25
2023-04-06T09:26:49.005Z,98886.72
2023-04-06T09:29:28.253Z,98887.75
2023-04-06T09:32:08.562Z,98894.03
2023-04-06T09:34:36.428Z,98900.03
2023-04-06T09:37:18.419Z,98902.34
2023-04-06T09:39:47.853Z,98900.69
2023-04-06T09:42:27.221Z,98896.25
2023-04-06T09:44:56.609Z,98903.19
2023-04-06T09:47:26.479Z,98904.66
2023-04-06T09:50:01.953Z,98905.72
2023-04-06T09:52:35.988Z,98910.94
2023-04-06T09:55:09.538Z,98913.50
2023-04-06T09:58:03.114Z,98915.63
2023-04-06T10:00:34.355Z,98916.03
2023-04-06T10:03:21.586Z,98914.00
2023-04-06T10:06:00.267Z,98915.91
2023-04-06T10:08:32.763Z,98915.97
2023-04-06T10:11:02.524Z,98909.25
2023-04-06T10:13:30.291Z,98912.44
2023-04-06T10:16:04.621Z,98916.59
2023-04-06T10:18:32.486Z,98906.28
2023-04-06T10:21:10.568Z,98913.16
2023-04-06T10:24:00.265Z,98914.41
2023-04-06T10:26:28.158Z,98912.78
2023-04-06T10:28:56.896Z,98914.31
2023-04-06T10:31:28.551Z,98924.00
2023-04-06T10:33:58.132Z,98916.00
2023-04-06T10:36:30.930Z,98919.38
2023-04-06T10:39:03.092Z,98920.53
2023-04-06T10:41:42.466Z,98923.00
2023-04-06T10:44:25.837Z,98923.22
2023-04-06T10:47:05.116Z,98911.34
2023-04-06T10:49:32.579Z,98926.34
2023-04-06T10:52:00.365Z,98928.38
2023-04-06T10:54:30.151Z,98932.53
2023-04-06T10:56:58.935Z,98925.84
2023-04-06T10:59:27.297Z,98935.41
2023-04-06T11:01:58.699Z,98935.31
2023-04-06T11:04:28.171Z,98931.31
2023-04-06T11:06:56.890Z,98932.19
2023-04-06T11:09:27.066Z,98944.97
2023-04-06T11:11:55.355Z,98942.75
2023-04-06T11:14:23.418Z,98945.22
2023-04-06T11:16:52.679Z,98937.56
2023-04-06T11:19:24.382Z,98944.66
2023-04-06T11:21:52.662Z,98950.63
2023-04-06T11:24:26.477Z,98956.88
2023-04-06T11:27:00.423Z,98951.63
2023-04-06T11:32:26.180Z,98941.56
2023-04-06T11:34:54.664Z,98948.91
2023-04-06T11:37:22.480Z,98949.94
2023-04-06T11:39:52.715Z,98946.06
2023-04-06T11:42:28.493Z,98954.19
2023-04-06T11:44:58.610Z,98957.94
2023-04-06T11:47:34.110Z,98958.53
2023-04-06T11:50:13.994Z,98958.06
2023-04-06T11:52:43.137Z,98961.09
2023-04-06T11:55:19.983Z,98962.94
2023-04-06T11:57:48.354Z,98965.97
2023-04-06T12:00:17.209Z,98962.09
2023-04-06T12:02:49.962Z,98967.44
2023-04-06T12:05:18.892Z,98965.25
2023-04-06T12:07:47.537Z,98964.38
2023-04-06T12:10:16.448Z,98968.38
2023-04-06T12:12:45.187Z,98978.03
2023-04-06T12:15:13.219Z,98977.16
2023-04-06T12:17:42.247Z,98973.09
2023-04-06T12:20:24.644Z,98985.56
2023-04-06T12:22:54.175Z,98981.44
2023-04-06T12:25:22.904Z,98982.50
2023-04-06T12:27:51.918Z,98984.41
2023-04-06T12:30:20.744Z,98985.47
2023-04-06T12:32:51.299Z,98976.91
2023-04-06T12:35:19.637Z,98973.97
2023-04-06T12:37:47.665Z,98972.69
2023-04-06T12:40:17.428Z,98975.03
2023-04-06T12:42:46.874Z,98974.41
2023-04-06T12:45:15.076Z,98965.63
2023-04-06T12:47:42.853Z,98967.78
2023-04-06T12:50:13.805Z,98974.09
2023-04-06T12:52:41.944Z,98977.72
2023-04-06T12:55:10.309Z,98965.75
2023-04-06T12:57:39.215Z,98977.28
2023-04-06T13:00:09.506Z,98973.22
2023-04-06T13:02:38.536Z,98977.41
2023-04-06T13:05:06.973Z,98969.97
2023-04-06T13:07:35.402Z,98968.44
2023-04-06T13:10:03.759Z,98976.44
2023-04-06T13:12:34.432Z,98976.38
2023-04-06T13:15:02.926Z,98980.06
2023-04-06T13:17:34.583Z,98976.25
2023-04-06T13:20:03.043Z,98976.91
2023-04-06T13:22:36.533Z,98983.53
2023-04-06T13:25:05.629Z,98984.97
2023-04-06T13:27:36.089Z,98979.72
2023-04-06T13:30:06.799Z,98982.69
2023-04-06T13:32:36.260Z,98981.75
2023-04-06T13:35:09.028Z,98980.09
2023-04-06T13:37:37.564Z,98985.53
2023-04-06T13:40:09.533Z,98984.34
2023-04-06T13:42:39.798Z,98985.28
2023-04-06T13:45:08.485Z,98983.53
2023-04-06T13:47:36.658Z,98983.16
2023-04-06T13:50:08.372Z,98982.03
2023-04-06T13:52:37.875Z,98985.75
2023-04-06T13:55:05.998Z,98987.38
2023-04-06T13:57:33.854Z,98988.50
2023-04-06T14:00:03.003Z,98989.78
2023-04-06T14:02:35.398Z,98991.72
2023-04-06T14:05:05.351Z,98996.16
2023-04-06T14:07:33.314Z,98989.28
2023-04-06T14:10:01.902Z,98988.44
2023-04-06T14:12:30.738Z,98988.47
2023-04-06T14:15:00.131Z,98986.47
2023-04-06T14:17:27.613Z,98985.75
2023-04-06T14:19:55.796Z,98982.56
2023-04-06T14:22:23.664Z,98987.47
2023-04-06T14:24:52.097Z,98984.78
2023-04-06T14:27:19.950Z,98988.03
2023-04-06T14:29:48.104Z,98981.13
2023-04-06T14:32:18.858Z,98987.19
2023-04-06T14:34:48.027Z,98983.16
2023-04-06T14:37:16.448Z,98981.75
2023-04-06T14:39:44.347Z,98991.88
2023-04-06T14:42:11.848Z,98994.84
2023-04-06T14:44:44.744Z,98996.03
2023-04-06T14:47:17.363Z,98992.41
2023-04-06T14:49:45.756Z,99000.69
2023-04-06T14:52:13.556Z,99000.63
2023-04-06T14:54:43.110Z,98993.81
2023-04-06T14:57:12.981Z,99000.53
2023-04-06T14:59:41.459Z,99002.97
2023-04-06T15:02:13.385Z,99008.06
2023-04-06T15:04:41.875Z,99007.13
2023-04-06T15:07:11.625Z,99011.28
2023-04-06T15:09:42.649Z,99014.44
2023-04-06T15:12:12.696Z,99011.88
2023-04-06T15:14:41.877Z,99009.06
2023-04-06T15:17:10.297Z,99016.50
2023-04-06T15:19:38.563Z,99019.59
2023-04-06T15:22:07.020Z,99016.16
2023-04-06T15:24:35.887Z,99018.81
2023-04-06T15:27:03.789Z,99016.38
2023-04-06T15:29:32.755Z,99015.53
2023-04-06T15:32:02.512Z,99015.13
2023-04-06T15:34:34.768Z,99015.09
2023-04-06T15:37:03.534Z,99020.84
2023-04-06T15:39:31.359Z,99021.25
2023-04-06T15:41:59.518Z,99014.25
2023-04-06T15:44:27.987Z,99020.28
2023-04-06T15:46:55.564Z,99016.41
2023-04-06T15:49:23.547Z,99031.16
2023-04-06T15:51:52.835Z,99021.97
2023-04-06T15:54:21.871Z,99039.16
2023-04-06T15:56:51.636Z,99034.59
2023-04-06T15:59:20.380Z,99036.41
2023-04-06T16:01:48.145Z,99037.34
2023-04-06T16:04:15.780Z,99035.84
2023-04-06T16:06:43.742Z,99043.25
2023-04-06T16:09:12.138Z,99039.84
2023-04-06T16:11:39.634Z,99040.81
2023-04-06T16:14:07.888Z,99051.72
2023-04-06T16:16:36.150Z,99048.88
2023-04-06T16:19:03.979Z,99053.31
2023-04-06T16:21:32.339Z,99058.16
2023-04-06T16:24:00.207Z,99052.22
2023-04-06T16:26:28.297Z,99057.03
2023-04-06T16:28:56.090Z,99060.34
2023-04-06T16:31:25.641Z,99068.31
2023-04-06T16:33:54.676Z,99068.59
2023-04-06T16:36:34.823Z,99075.06
2023-04-06T16:39:02.714Z,99076.28
2023-04-06T16:41:30.374Z,99074.59
2023-04-06T16:43:58.357Z,99079.25
2023-04-06T16:46:32.319Z,99089.28
2023-04-06T16:49:00.401Z,99085.50
2023-04-06T16:51:28.493Z,99091.00
2023-04-06T16:53:56.053Z,99100.41
2023-04-06T16:56:23.392Z,99106.69
2023-04-06T16:58:51.375Z,99100.81
2023-04-06T17:01:23.332Z,99115.00
2023-04-06T17:03:51.427Z,99103.63
2023-04-06T17:06:19.333Z,99109.09
2023-04-06T17:08:47.784Z,99106.72
2023-04-06T17:11:21.760Z,99113.84
2023-04-06T17:13:52.792Z,99114.94
2023-04-06T17:16:21.452Z,99110.47
2023-04-06T17:18:48.658Z,99122.03
2023-04-06T17:21:17.407Z,99119.47
2023-04-06T17:23:45.047Z,99117.94
2023-04-06T17:26:12.376Z,99127.78
2023-04-06T17:28:39.898Z,99123.31
2023-04-06T17:31:11.799Z,99120.84
2023-04-06T17:33:40.298Z,99129.84
2023-04-06T17:36:11.115Z,99127.38
2023-04-06T17:38:43.625Z,99132.84
2023-04-06T17:41:12.866Z,99131.38
2023-04-06T17:43:40.796Z,99128.72
2023-04-06T17:46:08.161Z,99136.00
2023-04-06T17:48:35.487Z,99139.59
2023-04-06T17:51:03.270Z,99139.66
2023-04-06T17:53:32.825Z,99140.72
2023-04-06T17:56:06.499Z,99143.44
2023-04-06T17:58:34.121Z,99144.38
2023-04-06T18:01:07.399Z,99149.00
2023-04-06T18:03:35.335Z,99152.66
2023-04-06T18:06:16.442Z,99154.72
2023-04-06T18:08:43.987Z,99152.16
2023-04-06T18:11:22.033Z,99155.75
2023-04-06T18:13:49.773Z,99153.19
2023-04-06T18:16:21.758Z,99147.25
2023-04-06T18:18:49.576Z,99156.25
2023-04-06T18:21:19.666Z,99154.53
2023-04-06T18:23:47.057Z,99150.00
2023-04-06T18:26:19.330Z,99149.25
2023-04-06T18:28:47.251Z,99159.06
2023-04-06T18:31:15.055Z,99158.13
2023-04-06T18:33:42.634Z,99165.28
2023-04-06T18:36:11.621Z,99157.34
2023-04-06T18:38:43.704Z,99162.66
2023-04-06T18:41:13.148Z,99163.59
2023-04-06T18:43:41.338Z,99172.47
2023-04-06T18:46:13.760Z,99175.03
2023-04-06T18:48:42.587Z,99177.59
2023-04-06T18:51:09.917Z,99173.91
2023-04-06T18:53:39.706Z,99181.00
2023-04-06T18:56:18.761Z,99183.75
2023-04-06T18:58:48.670Z,99187.69
2023-04-06T19:01:27.857Z,99203.06
2023-04-06T19:03:57.110Z,99204.91
2023-04-06T19:06:27.460Z,99205.97
2023-04-06T19:08:55.270Z,99205.03
2023-04-06T19:11:25.474Z,99207.03
2023-04-06T19:13:57.905Z,99214.44
2023-04-06T19:16:29.489Z,99214.13
2023-04-06T19:18:57.052Z,99213.19
2023-04-06T19:21:26.466Z,99221.44
2023-04-06T19:23:55.622Z,99222.91
2023-04-06T19:26:24.466Z,99222.72
2023-04-06T19:28:52.302Z,99225.31
2023-04-06T19:31:19.762Z,99228.03
2023-04-06T19:33:47.819Z,99230.09
2023-04-06T19:36:16.381Z,99236.47
2023-04-06T19:38:43.931Z,99238.25
2023-04-06T19:41:11.423Z,99238.16
2023-04-06T19:43:38.953Z,99242.34
2023-04-06T19:46:06.535Z,99241.72
2023-04-06T19:48:34.188Z,99246.69
2023-04-06T19:51:01.653Z,99253.75
2023-04-06T19:53:29.498Z,99255.63
2023-04-06T19:55:56.791Z,99263.34
2023-04-06T19:58:24.084Z,99260.13
2023-04-06T20:00:51.552Z,99266.47
2023-04-06T20:03:19.205Z,99266.41
2023-04-06T20:05:47.150Z,99270.84
2023-04-06T20:08:14.756Z,99261.19
2023-04-06T20:10:42.180Z,99269.34
2023-04-06T20:13:09.474Z,99276.34
2023-04-06T20:15:37.138Z,99272.00
2023-04-06T20:18:04.438Z,99281.69
2023-04-06T20:20:31.645Z,99279.97
2023-04-06T20:22:59.071Z,99288.03
2023-04-06T20:25:27.010Z,99287.31
2023-04-06T20:27:54.394Z,99283.34
2023-04-06T20:30:21.749Z,99290.50
2023-04-06T20:32:49.114Z,99287.25
2023-04-06T20:35:16.743Z,99282.25
2023-04-06T20:37:44.148Z,99292.06
2023-04-06T20:40:13.075Z,99291.97
2023-04-06T20:42:40.828Z,99300.59
2023-04-06T20:45:09.025Z,99303.38
2023-04-06T20:47:36.554Z,99293.22
2023-04-06T20:50:04.188Z,99301.19
2023-04-06T20:52:31.518Z,99310.84
2023-04-06T20:55:01.479Z,99311.75
2023-04-06T20:57:28.951Z,99307.84
2023-04-06T20:59:56.401Z,99320.72
2023-04-06T21:02:23.962Z,99318.88
2023-04-06T21:04:51.501Z,99321.03
2023-04-06T21:07:18.967Z,99319.19
2023-04-06T21:09:46.608Z,99326.91
2023-04-06T21:12:13.603Z,99328.69
2023-04-06T21:14:41.542Z,99333.00
2023-04-06T21:17:09.193Z,99336.94
2023-04-06T21:19:36.894Z,99334.34
2023-04-06T21:22:04.153Z,99340.41
2023-04-06T21:24:31.226Z,99339.75
2023-04-06T21:26:58.683Z,99347.84
2023-04-06T21:29:26.155Z,99349.56
2023-04-06T21:31:55.848Z,99358.44
2023-04-06T21:34:25.384Z,99361.53
2023-04-06T21:36:53.155Z,99361.72
2023-04-06T21:39:20.652Z,99365.72
2023-04-06T21:41:47.796Z,99365.88
2023-04-06T21:44:15.138Z,99372.47
2023-04-06T21:46:42.603Z,99372.75
2023-04-06T21:49:09.909Z,99374.47
2023-04-06T21:51:37.264Z,99372.78
2023-04-06T21:54:04.513Z,99378.16
2023-04-06T21:56:31.914Z,99387.91
2023-04-06T21:58:59.168Z,99393.06
2023-04-06T22:01:27.906Z,99381.16
2023-04-06T22:03:55.871Z,99396.75
2023-04-06T22:06:25.961Z,99401.31
2023-04-06T22:08:59.731Z,99390.97
2023-04-06T22:11:26.894Z,99395.94
2023-04-06T22:13:54.364Z,99398.03
2023-04-06T22:16:21.759Z,99398.91
2023-04-06T22:18:48.964Z,99388.75
2023-04-06T22:21:16.390Z,99397.50
2023-04-06T22:23:43.536Z,99404.38
2023-04-06T22:26:11.950Z,99395.03
2023-04-06T22:28:40.621Z,99401.31
2023-04-06T22:31:07.776Z,99405.84
2023-04-06T22:33:35.199Z,99412.00
2023-04-06T22:36:02.801Z,99405.13
2023-04-06T22:38:30.119Z,99411.56
2023-04-06T22:40:57.376Z,99406.09
2023-04-06T22:43:24.707Z,99412.31
2023-04-06T22:45:52.156Z,99414.91
2023-04-06T22:48:19.817Z,99414.78
2023-04-06T22:50:47.213Z,99413.16
2023-04-06T22:53:14.577Z,99414.78
2023-04-06T22:55:41.918Z,99412.97
2023-04-06T22:58:09.394Z,99398.78
2023-04-06T23:00:36.693Z,99405.69
2023-04-06T23:03:04.055Z,99412.81
2023-04-06T23:05:33.019Z,99414.47
2023-04-06T23:08:00.287Z,99420.59
2023-04-06T23:10:27.810Z,99412.84
2023-04-06T23:12:55.269Z,99421.69
2023-04-06T23:15:22.906Z,99414.59
2023-04-06T23:17:50.729Z,99418.03
2023-04-06T23:20:18.234Z,99422.44
2023-04-06T23:22:45.915Z,99420.75
2023-04-06T23:25:13.048Z,99420.84
2023-04-06T23:27:40.577Z,99422.84
2023-04-06T23:30:08.539Z,99419.56
2023-04-06T23:32:35.974Z,99425.56
2023-04-06T23:35:03.784Z,99431.78
2023-04-06T23:37:31.342Z,99431.88
2023-04-06T23:39:58.592Z,99431.16
2023-04-06T23:42:28.899Z,99436.47
2023-04-06T23:44:56.749Z,99442.53
2023-04-06T23:47:23.996Z,99439.69
2023-04-06T23:49:52.824Z,99445.09
2023-04-06T23:52:19.970Z,99444.53
2023-04-06T23:54:47.269Z,99442.94
2023-04-06T23:57:14.469Z,99446.50
2023-04-06T23:59:41.775Z,99449.91
